createdAt,value
2023-04-23T16:57:41.298Z,6.72
2023-04-23T17:00:09.676Z,6.78
2023-04-23T17:02:38.072Z,8.27
2023-04-23T17:05:06.342Z,9.40
2023-04-23T17:07:33.821Z,6.80
2023-04-23T17:10:01.478Z,6.32
2023-04-23T17:12:28.930Z,7.28
2023-04-23T17:14:56.365Z,8.15
2023-04-23T17:17:24.520Z,7.38
2023-04-23T17:19:51.818Z,6.85
2023-04-23T17:22:19.098Z,8.10
2023-04-23T17:24:46.345Z,7.93
2023-04-23T17:27:13.679Z,8.73
2023-04-23T17:29:41.113Z,6.57
2023-04-23T17:32:08.516Z,6.43
2023-04-23T17:34:35.893Z,7.18
2023-04-23T17:37:03.171Z,7.35
2023-04-23T17:39:34.284Z,6.28
2023-04-23T17:42:04.640Z,7.47
2023-04-23T17:44:32.014Z,7.25
2023-04-23T17:46:59.352Z,6.90
2023-04-23T17:49:26.776Z,9.68
2023-04-23T17:51:54.056Z,9.40
2023-04-23T17:54:21.420Z,8.32
2023-04-23T17:56:48.716Z,10.40
2023-04-23T17:59:17.230Z,10.00
2023-04-23T18:01:47.794Z,9.02
2023-04-23T18:04:17.355Z,9.30
2023-04-23T18:06:45.015Z,7.55
2023-04-23T18:09:12.269Z,9.27
2023-04-23T18:11:39.932Z,7.10
2023-04-23T18:14:07.761Z,11.05
2023-04-23T18:16:35.142Z,9.70
2023-04-23T18:19:02.484Z,13.77
2023-04-23T18:21:29.903Z,8.23
2023-04-23T18:23:57.233Z,8.18
2023-04-23T18:26:24.553Z,8.43
2023-04-23T18:28:51.926Z,11.35
2023-04-23T18:31:19.297Z,11.10
2023-04-23T18:33:54.496Z,8.30
2023-04-23T18:36:25.651Z,7.72
2023-04-23T18:38:53.011Z,8.90
2023-04-23T18:41:20.299Z,9.10
2023-04-23T18:43:47.574Z,7.63
2023-04-23T18:46:14.902Z,11.95
2023-04-23T18:48:48.016Z,9.32
2023-04-23T18:51:19.580Z,9.10
2023-04-23T18:53:46.900Z,9.45
2023-04-23T18:56:14.999Z,7.75
2023-04-23T18:58:42.261Z,9.60
2023-04-23T19:01:09.556Z,12.70
2023-04-23T19:03:37.287Z,8.82
2023-04-23T19:06:07.466Z,8.52
2023-04-23T19:08:35.667Z,10.45
2023-04-23T19:11:03.186Z,9.27
2023-04-23T19:13:30.797Z,12.43
2023-04-23T19:15:59.920Z,12.27
2023-04-23T19:18:27.292Z,11.50
2023-04-23T19:20:54.673Z,9.63
2023-04-23T19:23:22.038Z,9.77
2023-04-23T19:25:49.340Z,10.35
2023-04-23T19:28:17.256Z,9.20
2023-04-23T19:30:44.585Z,10.68
2023-04-23T19:33:14.522Z,11.45
2023-04-23T19:35:42.068Z,9.48
2023-04-23T19:38:10.057Z,8.55
2023-04-23T19:40:37.457Z,13.35
2023-04-23T19:43:06.037Z,11.93
2023-04-23T19:45:33.589Z,12.70
2023-04-23T19:48:04.694Z,13.27
2023-04-23T19:50:32.325Z,14.00
2023-04-23T19:52:59.653Z,9.63
2023-04-23T19:55:27.407Z,10.77
2023-04-23T19:57:55.372Z,12.70
2023-04-23T20:00:24.069Z,14.75
2023-04-23T20:02:55.622Z,15.05
2023-04-23T20:05:23.433Z,11.35
2023-04-23T20:07:51.756Z,14.18
2023-04-23T20:10:19.520Z,11.20
2023-04-23T20:12:48.353Z,11.77
2023-04-23T20:15:16.201Z,13.35
2023-04-23T20:17:43.523Z,12.43
2023-04-23T20:20:11.122Z,13.65
2023-04-23T20:22:38.453Z,12.75
2023-04-23T20:25:06.075Z,11.70
2023-04-23T20:27:33.612Z,11.60
2023-04-23T20:30:00.981Z,11.27
2023-04-23T20:32:28.387Z,11.73
2023-04-23T20:34:56.331Z,15.18
2023-04-23T20:37:26.894Z,12.52
2023-04-23T20:39:54.576Z,14.30
2023-04-23T20:42:22.252Z,12.48
2023-04-23T20:44:50.930Z,12.50
2023-04-23T20:47:18.408Z,11.85
2023-04-23T20:49:45.982Z,12.30
2023-04-23T20:52:14.695Z,13.52
2023-04-23T20:54:42.401Z,13.45
2023-04-23T20:57:09.720Z,11.73
2023-04-23T20:59:37.013Z,16.15
2023-04-23T21:02:07.289Z,13.02
2023-04-23T21:04:35.931Z,12.68
2023-04-23T21:07:06.843Z,12.38
2023-04-23T21:09:34.904Z,13.90
2023-04-23T21:12:02.448Z,14.43
2023-04-23T21:14:30.086Z,15.00
2023-04-23T21:16:58.851Z,16.15
2023-04-23T21:19:26.162Z,13.27
2023-04-23T21:21:54.647Z,15.93
2023-04-23T21:24:22.984Z,12.25
2023-04-23T21:26:50.491Z,16.63
